sensor_id;sensor_type;location;lat;lon;timestamp;pressure;altitude;pressure_sealevel;temperature;humidity
64687;BME280;51113;53.646;-113.674;2023-05-23T00:01:57;92705.63;;;18.09;66.67
64687;BME280;51113;53.646;-113.674;2023-05-23T00:04:27;92716.25;;;17.88;67.20
64687;BME280;51113;53.646;-113.674;2023-05-23T00:06:56;92707.47;;;17.72;67.75
64687;BME280;51113;53.646;-113.674;2023-05-23T00:09:24;92713.19;;;17.74;68.28
64687;BME280;51113;53.646;-113.674;2023-05-23T00:11:53;92711.97;;;17.71;68.70
64687;BME280;51113;53.646;-113.674;2023-05-23T00:14:22;92713.84;;;17.83;68.05
64687;BME280;51113;53.646;-113.674;2023-05-23T00:16:51;92699.66;;;17.51;69.56
64687;BME280;51113;53.646;-113.674;2023-05-23T00:19:20;92699.72;;;17.18;70.64
64687;BME280;51113;53.646;-113.674;2023-05-23T00:21:49;92702.00;;;16.87;71.68
64687;BME280;51113;53.646;-113.674;2023-05-23T00:24:23;92708.59;;;16.93;71.38
64687;BME280;51113;53.646;-113.674;2023-05-23T00:26:51;92706.19;;;16.67;72.40
64687;BME280;51113;53.646;-113.674;2023-05-23T00:29:20;92712.75;;;16.52;72.77
64687;BME280;51113;53.646;-113.674;2023-05-23T00:31:49;92695.44;;;16.39;73.29
64687;BME280;51113;53.646;-113.674;2023-05-23T00:34:18;92692.34;;;16.37;73.35
64687;BME280;51113;53.646;-113.674;2023-05-23T00:36:47;92697.03;;;16.31;74.00
64687;BME280;51113;53.646;-113.674;2023-05-23T00:39:17;92695.28;;;16.14;75.00
64687;BME280;51113;53.646;-113.674;2023-05-23T00:41:49;92701.41;;;16.19;74.76
64687;BME280;51113;53.646;-113.674;2023-05-23T00:44:19;92702.78;;;16.25;74.78
64687;BME280;51113;53.646;-113.674;2023-05-23T00:46:52;92703.59;;;16.17;75.39
64687;BME280;51113;53.646;-113.674;2023-05-23T00:49:23;92703.69;;;15.99;75.67
64687;BME280;51113;53.646;-113.674;2023-05-23T00:51:51;92701.66;;;15.75;76.28
64687;BME280;51113;53.646;-113.674;2023-05-23T00:54:24;92699.38;;;15.65;76.94
64687;BME280;51113;53.646;-113.674;2023-05-23T00:56:54;92702.00;;;15.57;77.27
64687;BME280;51113;53.646;-113.674;2023-05-23T00:59:24;92711.13;;;15.59;76.79
64687;BME280;51113;53.646;-113.674;2023-05-23T01:01:55;92713.78;;;15.42;76.97
64687;BME280;51113;53.646;-113.674;2023-05-23T01:04:24;92716.56;;;15.37;77.32
64687;BME280;51113;53.646;-113.674;2023-05-23T01:06:55;92719.50;;;15.27;77.43
64687;BME280;51113;53.646;-113.674;2023-05-23T01:09:25;92723.19;;;15.26;77.44
64687;BME280;51113;53.646;-113.674;2023-05-23T01:14:52;92720.16;;;15.06;78.38
64687;BME280;51113;53.646;-113.674;2023-05-23T01:17:38;92727.56;;;14.96;79.10
64687;BME280;51113;53.646;-113.674;2023-05-23T01:20:18;92718.34;;;14.90;79.30
64687;BME280;51113;53.646;-113.674;2023-05-23T01:28:19;92719.72;;;14.96;79.87
64687;BME280;51113;53.646;-113.674;2023-05-23T01:30:51;92717.09;;;14.96;79.51
64687;BME280;51113;53.646;-113.674;2023-05-23T01:33:19;92720.94;;;14.98;79.73
64687;BME280;51113;53.646;-113.674;2023-05-23T01:35:50;92718.94;;;14.95;79.78
64687;BME280;51113;53.646;-113.674;2023-05-23T01:38:19;92709.88;;;14.93;79.69
64687;BME280;51113;53.646;-113.674;2023-05-23T01:40:48;92703.72;;;14.89;79.35
64687;BME280;51113;53.646;-113.674;2023-05-23T01:43:16;92711.28;;;14.73;79.83
64687;BME280;51113;53.646;-113.674;2023-05-23T01:45:45;92714.22;;;14.63;80.37
64687;BME280;51113;53.646;-113.674;2023-05-23T01:48:15;92706.84;;;14.56;80.26
64687;BME280;51113;53.646;-113.674;2023-05-23T01:50:45;92714.22;;;14.54;80.45
64687;BME280;51113;53.646;-113.674;2023-05-23T01:53:15;92712.81;;;14.48;81.00
64687;BME280;51113;53.646;-113.674;2023-05-23T01:55:45;92700.38;;;14.53;80.64
64687;BME280;51113;53.646;-113.674;2023-05-23T01:58:13;92705.25;;;14.38;80.95
64687;BME280;51113;53.646;-113.674;2023-05-23T02:00:42;92716.31;;;14.35;81.00
64687;BME280;51113;53.646;-113.674;2023-05-23T02:03:11;92716.94;;;14.32;81.13
64687;BME280;51113;53.646;-113.674;2023-05-23T02:05:40;92727.22;;;14.28;81.11
64687;BME280;51113;53.646;-113.674;2023-05-23T02:08:09;92729.53;;;14.30;81.36
64687;BME280;51113;53.646;-113.674;2023-05-23T02:10:38;92728.16;;;14.32;81.28
64687;BME280;51113;53.646;-113.674;2023-05-23T02:13:06;92727.06;;;14.25;81.30
64687;BME280;51113;53.646;-113.674;2023-05-23T02:15:35;92730.13;;;14.27;81.36
64687;BME280;51113;53.646;-113.674;2023-05-23T02:18:04;92730.75;;;14.23;81.47
64687;BME280;51113;53.646;-113.674;2023-05-23T02:20:33;92719.06;;;14.21;81.76
64687;BME280;51113;53.646;-113.674;2023-05-23T02:23:02;92721.22;;;14.28;81.15
64687;BME280;51113;53.646;-113.674;2023-05-23T02:25:31;92728.13;;;14.23;81.47
64687;BME280;51113;53.646;-113.674;2023-05-23T02:27:59;92726.13;;;14.20;81.51
64687;BME280;51113;53.646;-113.674;2023-05-23T02:30:28;92722.13;;;14.14;81.87
64687;BME280;51113;53.646;-113.674;2023-05-23T02:32:56;92734.72;;;14.12;81.91
64687;BME280;51113;53.646;-113.674;2023-05-23T02:35:25;92731.34;;;14.12;81.81
64687;BME280;51113;53.646;-113.674;2023-05-23T02:37:54;92728.56;;;14.08;81.98
64687;BME280;51113;53.646;-113.674;2023-05-23T02:40:22;92720.72;;;14.00;82.28
64687;BME280;51113;53.646;-113.674;2023-05-23T02:42:50;92721.94;;;13.94;82.83
64687;BME280;51113;53.646;-113.674;2023-05-23T02:45:19;92727.31;;;13.88;82.61
64687;BME280;51113;53.646;-113.674;2023-05-23T02:47:48;92729.59;;;13.90;82.62
64687;BME280;51113;53.646;-113.674;2023-05-23T02:50:16;92733.75;;;13.91;82.75
64687;BME280;51113;53.646;-113.674;2023-05-23T02:52:45;92740.34;;;13.88;82.92
64687;BME280;51113;53.646;-113.674;2023-05-23T02:55:13;92734.34;;;13.79;83.33
64687;BME280;51113;53.646;-113.674;2023-05-23T02:57:42;92738.78;;;13.79;83.19
64687;BME280;51113;53.646;-113.674;2023-05-23T03:00:11;92748.00;;;13.76;83.32
64687;BME280;51113;53.646;-113.674;2023-05-23T03:02:40;92753.03;;;13.73;83.23
64687;BME280;51113;53.646;-113.674;2023-05-23T03:05:09;92763.13;;;13.66;83.36
64687;BME280;51113;53.646;-113.674;2023-05-23T03:07:38;92757.91;;;13.66;83.69
64687;BME280;51113;53.646;-113.674;2023-05-23T03:10:07;92760.22;;;13.67;83.53
64687;BME280;51113;53.646;-113.674;2023-05-23T03:12:36;92757.75;;;13.62;83.62
64687;BME280;51113;53.646;-113.674;2023-05-23T03:15:05;92759.44;;;13.58;83.33
64687;BME280;51113;53.646;-113.674;2023-05-23T03:17:34;92753.44;;;13.57;83.67
64687;BME280;51113;53.646;-113.674;2023-05-23T03:20:03;92750.41;;;13.64;83.27
64687;BME280;51113;53.646;-113.674;2023-05-23T03:22:32;92753.00;;;13.64;83.40
64687;BME280;51113;53.646;-113.674;2023-05-23T03:25:01;92758.06;;;13.61;83.31
64687;BME280;51113;53.646;-113.674;2023-05-23T03:27:29;92757.63;;;13.67;82.82
64687;BME280;51113;53.646;-113.674;2023-05-23T03:29:58;92757.91;;;13.66;82.77
64687;BME280;51113;53.646;-113.674;2023-05-23T03:32:26;92757.72;;;13.53;82.89
64687;BME280;51113;53.646;-113.674;2023-05-23T03:34:55;92762.13;;;13.44;83.39
64687;BME280;51113;53.646;-113.674;2023-05-23T03:37:23;92757.38;;;13.46;83.11
64687;BME280;51113;53.646;-113.674;2023-05-23T03:39:52;92764.56;;;13.41;83.61
64687;BME280;51113;53.646;-113.674;2023-05-23T03:42:20;92770.66;;;13.36;83.56
64687;BME280;51113;53.646;-113.674;2023-05-23T03:44:49;92758.34;;;13.28;83.81
64687;BME280;51113;53.646;-113.674;2023-05-23T03:47:17;92771.22;;;13.24;84.37
64687;BME280;51113;53.646;-113.674;2023-05-23T03:49:45;92768.31;;;13.26;84.39
64687;BME280;51113;53.646;-113.674;2023-05-23T03:52:14;92782.66;;;13.37;84.16
64687;BME280;51113;53.646;-113.674;2023-05-23T03:54:42;92775.25;;;13.31;83.97
64687;BME280;51113;53.646;-113.674;2023-05-23T03:57:11;92772.88;;;13.20;84.76
64687;BME280;51113;53.646;-113.674;2023-05-23T03:59:40;92768.91;;;13.23;84.53
64687;BME280;51113;53.646;-113.674;2023-05-23T04:02:08;92774.94;;;13.32;84.13
64687;BME280;51113;53.646;-113.674;2023-05-23T04:04:37;92777.19;;;13.25;84.70
64687;BME280;51113;53.646;-113.674;2023-05-23T04:07:06;92761.38;;;13.21;84.63
64687;BME280;51113;53.646;-113.674;2023-05-23T04:09:37;92771.50;;;13.23;84.48
64687;BME280;51113;53.646;-113.674;2023-05-23T04:12:05;92777.69;;;13.27;84.52
64687;BME280;51113;53.646;-113.674;2023-05-23T04:14:36;92770.63;;;13.28;84.56
64687;BME280;51113;53.646;-113.674;2023-05-23T04:17:06;92764.63;;;13.27;85.12
64687;BME280;51113;53.646;-113.674;2023-05-23T04:19:36;92751.94;;;13.34;84.55
64687;BME280;51113;53.646;-113.674;2023-05-23T04:22:04;92744.25;;;13.29;85.14
64687;BME280;51113;53.646;-113.674;2023-05-23T04:24:33;92747.66;;;13.38;86.08
64687;BME280;51113;53.646;-113.674;2023-05-23T04:27:01;92757.50;;;13.41;85.41
64687;BME280;51113;53.646;-113.674;2023-05-23T04:29:30;92755.63;;;13.33;85.96
64687;BME280;51113;53.646;-113.674;2023-05-23T04:31:59;92754.69;;;13.29;86.27
64687;BME280;51113;53.646;-113.674;2023-05-23T04:34:27;92763.31;;;13.38;86.12
64687;BME280;51113;53.646;-113.674;2023-05-23T04:36:58;92773.56;;;13.35;86.29
64687;BME280;51113;53.646;-113.674;2023-05-23T04:39:29;92761.91;;;13.32;86.15
64687;BME280;51113;53.646;-113.674;2023-05-23T04:41:57;92754.06;;;13.10;86.50
64687;BME280;51113;53.646;-113.674;2023-05-23T04:44:26;92754.94;;;13.19;87.04
64687;BME280;51113;53.646;-113.674;2023-05-23T04:46:57;92751.13;;;13.03;86.62
64687;BME280;51113;53.646;-113.674;2023-05-23T04:49:26;92744.59;;;12.91;86.61
64687;BME280;51113;53.646;-113.674;2023-05-23T04:51:54;92730.09;;;12.77;88.58
64687;BME280;51113;53.646;-113.674;2023-05-23T04:54:23;92713.34;;;12.69;88.47
64687;BME280;51113;53.646;-113.674;2023-05-23T04:56:52;92712.50;;;13.05;87.53
64687;BME280;51113;53.646;-113.674;2023-05-23T04:59:20;92720.97;;;13.10;87.16
64687;BME280;51113;53.646;-113.674;2023-05-23T05:01:49;92722.50;;;13.11;86.46
64687;BME280;51113;53.646;-113.674;2023-05-23T05:04:18;92735.84;;;12.87;87.37
64687;BME280;51113;53.646;-113.674;2023-05-23T05:06:47;92735.91;;;12.74;87.48
64687;BME280;51113;53.646;-113.674;2023-05-23T05:09:15;92750.75;;;12.73;88.39
64687;BME280;51113;53.646;-113.674;2023-05-23T05:11:44;92751.13;;;12.80;87.81
64687;BME280;51113;53.646;-113.674;2023-05-23T05:14:13;92749.22;;;12.94;87.58
64687;BME280;51113;53.646;-113.674;2023-05-23T05:16:42;92749.94;;;13.09;86.88
64687;BME280;51113;53.646;-113.674;2023-05-23T05:19:13;92754.06;;;13.10;87.33
64687;BME280;51113;53.646;-113.674;2023-05-23T05:21:41;92753.00;;;13.11;87.19
64687;BME280;51113;53.646;-113.674;2023-05-23T05:24:09;92751.34;;;13.15;87.12
64687;BME280;51113;53.646;-113.674;2023-05-23T05:26:38;92750.47;;;13.19;87.03
64687;BME280;51113;53.646;-113.674;2023-05-23T05:29:06;92744.66;;;13.22;87.09
64687;BME280;51113;53.646;-113.674;2023-05-23T05:31:35;92746.50;;;13.22;87.08
64687;BME280;51113;53.646;-113.674;2023-05-23T05:34:04;92737.03;;;13.26;86.77
64687;BME280;51113;53.646;-113.674;2023-05-23T05:36:33;92729.78;;;13.23;87.16
64687;BME280;51113;53.646;-113.674;2023-05-23T05:39:01;92727.06;;;13.28;86.89
64687;BME280;51113;53.646;-113.674;2023-05-23T05:41:30;92725.22;;;13.29;86.84
64687;BME280;51113;53.646;-113.674;2023-05-23T05:43:59;92724.16;;;13.30;86.68
64687;BME280;51113;53.646;-113.674;2023-05-23T05:46:27;92722.75;;;13.23;87.22
64687;BME280;51113;53.646;-113.674;2023-05-23T05:48:56;92741.34;;;13.31;86.89
64687;BME280;51113;53.646;-113.674;2023-05-23T05:51:24;92741.97;;;13.36;86.47
64687;BME280;51113;53.646;-113.674;2023-05-23T05:53:53;92749.97;;;13.40;86.05
64687;BME280;51113;53.646;-113.674;2023-05-23T05:56:21;92748.31;;;13.44;86.06
64687;BME280;51113;53.646;-113.674;2023-05-23T05:58:51;92746.63;;;13.48;85.93
64687;BME280;51113;53.646;-113.674;2023-05-23T06:01:20;92740.97;;;13.46;86.01
64687;BME280;51113;53.646;-113.674;2023-05-23T06:03:49;92744.50;;;13.50;85.94
64687;BME280;51113;53.646;-113.674;2023-05-23T06:06:18;92749.41;;;13.51;85.78
64687;BME280;51113;53.646;-113.674;2023-05-23T06:08:46;92752.38;;;13.58;85.32
64687;BME280;51113;53.646;-113.674;2023-05-23T06:11:15;92750.56;;;13.68;85.13
64687;BME280;51113;53.646;-113.674;2023-05-23T06:13:44;92753.31;;;13.63;85.24
64687;BME280;51113;53.646;-113.674;2023-05-23T06:16:13;92749.94;;;13.62;85.37
64687;BME280;51113;53.646;-113.674;2023-05-23T06:18:42;92742.94;;;13.80;84.34
64687;BME280;51113;53.646;-113.674;2023-05-23T06:21:10;92736.63;;;13.81;84.26
64687;BME280;51113;53.646;-113.674;2023-05-23T06:23:39;92738.94;;;13.82;84.74
64687;BME280;51113;53.646;-113.674;2023-05-23T06:26:08;92743.53;;;13.77;84.88
64687;BME280;51113;53.646;-113.674;2023-05-23T06:28:37;92753.69;;;13.78;85.09
64687;BME280;51113;53.646;-113.674;2023-05-23T06:31:07;92762.88;;;13.76;85.61
64687;BME280;51113;53.646;-113.674;2023-05-23T06:33:38;92758.28;;;13.81;85.18
64687;BME280;51113;53.646;-113.674;2023-05-23T06:36:07;92771.34;;;13.81;85.63
64687;BME280;51113;53.646;-113.674;2023-05-23T06:38:36;92768.44;;;13.83;85.73
64687;BME280;51113;53.646;-113.674;2023-05-23T06:41:04;92776.44;;;13.86;85.65
64687;BME280;51113;53.646;-113.674;2023-05-23T06:43:34;92761.84;;;13.85;85.80
64687;BME280;51113;53.646;-113.674;2023-05-23T06:46:02;92758.16;;;13.86;85.73
64687;BME280;51113;53.646;-113.674;2023-05-23T06:48:31;92753.69;;;13.87;86.33
64687;BME280;51113;53.646;-113.674;2023-05-23T06:50:59;92740.84;;;13.99;85.33
64687;BME280;51113;53.646;-113.674;2023-05-23T06:53:28;92735.16;;;13.97;85.54
64687;BME280;51113;53.646;-113.674;2023-05-23T06:55:57;92727.81;;;14.08;85.14
64687;BME280;51113;53.646;-113.674;2023-05-23T06:58:25;92721.66;;;14.12;84.99
64687;BME280;51113;53.646;-113.674;2023-05-23T07:00:54;92719.94;;;13.99;85.57
64687;BME280;51113;53.646;-113.674;2023-05-23T07:03:22;92740.22;;;14.02;85.68
64687;BME280;51113;53.646;-113.674;2023-05-23T07:05:51;92736.41;;;14.08;85.84
64687;BME280;51113;53.646;-113.674;2023-05-23T07:08:20;92723.19;;;14.05;85.84
64687;BME280;51113;53.646;-113.674;2023-05-23T07:10:48;92717.53;;;14.20;84.99
64687;BME280;51113;53.646;-113.674;2023-05-23T07:13:17;92735.81;;;14.20;85.29
64687;BME280;51113;53.646;-113.674;2023-05-23T07:15:46;92738.56;;;14.15;85.78
64687;BME280;51113;53.646;-113.674;2023-05-23T07:18:14;92748.41;;;14.18;85.77
64687;BME280;51113;53.646;-113.674;2023-05-23T07:20:43;92743.34;;;14.21;85.43
64687;BME280;51113;53.646;-113.674;2023-05-23T07:23:11;92740.72;;;14.21;85.78
64687;BME280;51113;53.646;-113.674;2023-05-23T07:25:39;92738.59;;;14.23;85.14
64687;BME280;51113;53.646;-113.674;2023-05-23T07:28:19;92741.19;;;14.23;85.46
64687;BME280;51113;53.646;-113.674;2023-05-23T07:30:48;92747.19;;;14.24;85.48
64687;BME280;51113;53.646;-113.674;2023-05-23T07:33:17;92760.41;;;14.28;85.46
64687;BME280;51113;53.646;-113.674;2023-05-23T07:35:45;92751.81;;;14.27;86.08
64687;BME280;51113;53.646;-113.674;2023-05-23T07:38:13;92741.97;;;14.24;85.74
64687;BME280;51113;53.646;-113.674;2023-05-23T07:40:42;92743.19;;;14.18;86.52
64687;BME280;51113;53.646;-113.674;2023-05-23T07:43:21;92736.81;;;13.84;87.53
64687;BME280;51113;53.646;-113.674;2023-05-23T07:45:49;92728.03;;;13.80;87.83
64687;BME280;51113;53.646;-113.674;2023-05-23T07:48:18;92722.66;;;13.77;88.83
64687;BME280;51113;53.646;-113.674;2023-05-23T07:50:46;92733.56;;;13.79;89.31
64687;BME280;51113;53.646;-113.674;2023-05-23T07:53:15;92715.38;;;13.56;91.61
64687;BME280;51113;53.646;-113.674;2023-05-23T07:55:44;92690.81;;;13.57;88.82
64687;BME280;51113;53.646;-113.674;2023-05-23T07:58:12;92706.19;;;13.28;92.59
64687;BME280;51113;53.646;-113.674;2023-05-23T08:00:41;60707.69;;;-145.13;100.00
64687;BME280;51113;53.646;-113.674;2023-05-23T08:03:11;60707.69;;;-145.13;100.00
64687;BME280;51113;53.646;-113.674;2023-05-23T08:05:40;60707.69;;;-145.13;100.00
64687;BME280;51113;53.646;-113.674;2023-05-23T08:08:08;60707.69;;;-145.13;100.00
64687;BME280;51113;53.646;-113.674;2023-05-23T08:10:37;60707.69;;;-145.13;100.00
64687;BME280;51113;53.646;-113.674;2023-05-23T08:13:10;60707.69;;;-145.13;100.00
64687;BME280;51113;53.646;-113.674;2023-05-23T08:15:38;60707.69;;;-145.13;100.00
64687;BME280;51113;53.646;-113.674;2023-05-23T08:18:07;60707.69;;;-145.13;100.00
64687;BME280;51113;53.646;-113.674;2023-05-23T08:20:35;60707.69;;;-145.13;100.00
64687;BME280;51113;53.646;-113.674;2023-05-23T08:23:04;60707.69;;;-145.13;100.00
64687;BME280;51113;53.646;-113.674;2023-05-23T08:25:33;60707.69;;;-145.13;100.00
64687;BME280;51113;53.646;-113.674;2023-05-23T08:28:02;60707.69;;;-145.13;100.00
64687;BME280;51113;53.646;-113.674;2023-05-23T08:30:30;60707.69;;;-145.13;100.00
64687;BME280;51113;53.646;-113.674;2023-05-23T08:33:00;60707.69;;;-145.13;100.00
64687;BME280;51113;53.646;-113.674;2023-05-23T08:35:31;60707.69;;;-145.13;100.00
64687;BME280;51113;53.646;-113.674;2023-05-23T08:38:05;60707.69;;;-145.13;100.00
64687;BME280;51113;53.646;-113.674;2023-05-23T08:40:38;60707.69;;;-145.13;100.00
64687;BME280;51113;53.646;-113.674;2023-05-23T08:43:09;60707.69;;;-145.13;100.00
64687;BME280;51113;53.646;-113.674;2023-05-23T08:45:40;60707.69;;;-145.13;100.00
64687;BME280;51113;53.646;-113.674;2023-05-23T08:48:12;60707.69;;;-145.13;100.00
64687;BME280;51113;53.646;-113.674;2023-05-23T08:50:45;60707.69;;;-145.13;100.00
64687;BME280;51113;53.646;-113.674;2023-05-23T08:53:15;60707.69;;;-145.13;100.00
64687;BME280;51113;53.646;-113.674;2023-05-23T08:55:50;60707.69;;;-145.13;100.00
64687;BME280;51113;53.646;-113.674;2023-05-23T08:58:19;60707.69;;;-145.13;100.00
64687;BME280;51113;53.646;-113.674;2023-05-23T09:00:52;60707.69;;;-145.13;100.00
64687;BME280;51113;53.646;-113.674;2023-05-23T09:03:21;60707.69;;;-145.13;100.00
64687;BME280;51113;53.646;-113.674;2023-05-23T09:05:50;60707.69;;;-145.13;100.00
64687;BME280;51113;53.646;-113.674;2023-05-23T09:08:20;60707.69;;;-145.13;100.00
64687;BME280;51113;53.646;-113.674;2023-05-23T09:10:49;60707.69;;;-145.13;100.00
64687;BME280;51113;53.646;-113.674;2023-05-23T09:13:19;60707.69;;;-145.13;100.00
64687;BME280;51113;53.646;-113.674;2023-05-23T09:18:35;60707.69;;;-145.13;100.00
64687;BME280;51113;53.646;-113.674;2023-05-23T09:21:04;60707.69;;;-145.13;100.00
64687;BME280;51113;53.646;-113.674;2023-05-23T09:23:34;60707.69;;;-145.13;100.00
64687;BME280;51113;53.646;-113.674;2023-05-23T09:26:04;60707.69;;;-145.13;100.00
64687;BME280;51113;53.646;-113.674;2023-05-23T09:28:34;60707.69;;;-145.13;100.00
64687;BME280;51113;53.646;-113.674;2023-05-23T09:31:05;60707.69;;;-145.13;100.00
64687;BME280;51113;53.646;-113.674;2023-05-23T09:36:06;60707.69;;;-145.13;100.00
64687;BME280;51113;53.646;-113.674;2023-05-23T09:38:39;60707.69;;;-145.13;100.00
64687;BME280;51113;53.646;-113.674;2023-05-23T09:41:08;60707.69;;;-145.13;100.00
64687;BME280;51113;53.646;-113.674;2023-05-23T09:43:48;60707.69;;;-145.13;100.00
64687;BME280;51113;53.646;-113.674;2023-05-23T09:46:18;60707.69;;;-145.13;100.00
64687;BME280;51113;53.646;-113.674;2023-05-23T09:48:48;60707.69;;;-145.13;100.00
64687;BME280;51113;53.646;-113.674;2023-05-23T09:51:20;60707.69;;;-145.13;100.00
64687;BME280;51113;53.646;-113.674;2023-05-23T09:53:49;60707.69;;;-145.13;100.00
64687;BME280;51113;53.646;-113.674;2023-05-23T09:56:18;60707.69;;;-145.13;100.00
64687;BME280;51113;53.646;-113.674;2023-05-23T09:58:48;60707.69;;;-145.13;100.00
64687;BME280;51113;53.646;-113.674;2023-05-23T10:01:17;60707.69;;;-145.13;100.00
64687;BME280;51113;53.646;-113.674;2023-05-23T10:03:51;60707.69;;;-145.13;100.00
64687;BME280;51113;53.646;-113.674;2023-05-23T10:06:43;60707.69;;;-145.13;100.00
64687;BME280;51113;53.646;-113.674;2023-05-23T10:09:17;60707.69;;;-145.13;100.00
64687;BME280;51113;53.646;-113.674;2023-05-23T10:12:15;60707.69;;;-145.13;100.00
64687;BME280;51113;53.646;-113.674;2023-05-23T10:14:57;60707.69;;;-145.13;100.00
64687;BME280;51113;53.646;-113.674;2023-05-23T10:20:09;60707.69;;;-145.13;100.00
64687;BME280;51113;53.646;-113.674;2023-05-23T10:22:39;60707.69;;;-145.13;100.00
64687;BME280;51113;53.646;-113.674;2023-05-23T10:25:09;60707.69;;;-145.13;100.00
64687;BME280;51113;53.646;-113.674;2023-05-23T10:27:38;60707.69;;;-145.13;100.00
64687;BME280;51113;53.646;-113.674;2023-05-23T10:30:08;60707.69;;;-145.13;100.00
64687;BME280;51113;53.646;-113.674;2023-05-23T10:32:38;60707.69;;;-145.13;100.00
64687;BME280;51113;53.646;-113.674;2023-05-23T10:46:04;60707.69;;;-145.13;100.00
64687;BME280;51113;53.646;-113.674;2023-05-23T10:48:40;60707.69;;;-145.13;100.00
64687;BME280;51113;53.646;-113.674;2023-05-23T10:51:11;60707.69;;;-145.13;100.00
64687;BME280;51113;53.646;-113.674;2023-05-23T10:53:43;60707.69;;;-145.13;100.00
64687;BME280;51113;53.646;-113.674;2023-05-23T10:56:31;60707.69;;;-145.13;100.00
64687;BME280;51113;53.646;-113.674;2023-05-23T10:59:00;60707.69;;;-145.13;100.00
64687;BME280;51113;53.646;-113.674;2023-05-23T11:01:29;60707.69;;;-145.13;100.00
64687;BME280;51113;53.646;-113.674;2023-05-23T11:04:04;60707.69;;;-145.13;100.00
64687;BME280;51113;53.646;-113.674;2023-05-23T11:06:38;60707.69;;;-145.13;100.00
64687;BME280;51113;53.646;-113.674;2023-05-23T11:09:13;60707.69;;;-145.13;100.00
64687;BME280;51113;53.646;-113.674;2023-05-23T11:14:50;60707.69;;;-145.13;100.00
64687;BME280;51113;53.646;-113.674;2023-05-23T11:17:33;60707.69;;;-145.13;100.00
64687;BME280;51113;53.646;-113.674;2023-05-23T11:20:03;60707.69;;;-145.13;100.00
64687;BME280;51113;53.646;-113.674;2023-05-23T11:22:35;60707.69;;;-145.13;100.00
64687;BME280;51113;53.646;-113.674;2023-05-23T11:25:08;60707.69;;;-145.13;100.00
64687;BME280;51113;53.646;-113.674;2023-05-23T11:27:40;60707.69;;;-145.13;100.00
64687;BME280;51113;53.646;-113.674;2023-05-23T11:32:42;60707.69;;;-145.13;100.00
64687;BME280;51113;53.646;-113.674;2023-05-23T11:35:17;60707.69;;;-145.13;100.00
64687;BME280;51113;53.646;-113.674;2023-05-23T11:37:46;60707.69;;;-145.13;100.00
64687;BME280;51113;53.646;-113.674;2023-05-23T11:43:01;60707.69;;;-145.13;100.00
64687;BME280;51113;53.646;-113.674;2023-05-23T11:45:30;60707.69;;;-145.13;100.00
64687;BME280;51113;53.646;-113.674;2023-05-23T11:48:13;60707.69;;;-145.13;100.00
64687;BME280;51113;53.646;-113.674;2023-05-23T11:50:44;60707.69;;;-145.13;100.00
64687;BME280;51113;53.646;-113.674;2023-05-23T11:53:13;60707.69;;;-145.13;100.00
64687;BME280;51113;53.646;-113.674;2023-05-23T11:55:57;60707.69;;;-145.13;100.00
64687;BME280;51113;53.646;-113.674;2023-05-23T11:58:30;60707.69;;;-145.13;100.00
64687;BME280;51113;53.646;-113.674;2023-05-23T12:01:07;60707.69;;;-145.13;100.00
64687;BME280;51113;53.646;-113.674;2023-05-23T12:03:46;60707.69;;;-145.13;100.00
64687;BME280;51113;53.646;-113.674;2023-05-23T12:06:23;60707.69;;;-145.13;100.00
64687;BME280;51113;53.646;-113.674;2023-05-23T12:08:53;60707.69;;;-145.13;100.00
64687;BME280;51113;53.646;-113.674;2023-05-23T12:11:21;60707.69;;;-145.13;100.00
64687;BME280;51113;53.646;-113.674;2023-05-23T12:13:51;60707.69;;;-145.13;100.00
64687;BME280;51113;53.646;-113.674;2023-05-23T12:16:20;60707.69;;;-145.13;100.00
64687;BME280;51113;53.646;-113.674;2023-05-23T12:18:49;60707.69;;;-145.13;100.00
64687;BME280;51113;53.646;-113.674;2023-05-23T12:21:18;60707.69;;;-145.13;100.00
64687;BME280;51113;53.646;-113.674;2023-05-23T12:23:47;60707.69;;;-145.13;100.00
64687;BME280;51113;53.646;-113.674;2023-05-23T12:26:15;60707.69;;;-145.13;100.00
64687;BME280;51113;53.646;-113.674;2023-05-23T12:28:44;60707.69;;;-145.13;100.00
64687;BME280;51113;53.646;-113.674;2023-05-23T12:31:24;60707.69;;;-145.13;100.00
64687;BME280;51113;53.646;-113.674;2023-05-23T12:33:53;60707.69;;;-145.13;100.00
64687;BME280;51113;53.646;-113.674;2023-05-23T12:36:23;60707.69;;;-145.13;100.00
64687;BME280;51113;53.646;-113.674;2023-05-23T12:39:01;60707.69;;;-145.13;100.00
64687;BME280;51113;53.646;-113.674;2023-05-23T12:41:32;60707.69;;;-145.13;100.00
64687;BME280;51113;53.646;-113.674;2023-05-23T12:44:01;60707.69;;;-145.13;100.00
64687;BME280;51113;53.646;-113.674;2023-05-23T12:46:31;60707.69;;;-145.13;100.00
64687;BME280;51113;53.646;-113.674;2023-05-23T12:49:00;60707.69;;;-145.13;100.00
64687;BME280;51113;53.646;-113.674;2023-05-23T12:51:28;60707.69;;;-145.13;100.00
64687;BME280;51113;53.646;-113.674;2023-05-23T12:53:57;60707.69;;;-145.13;100.00
64687;BME280;51113;53.646;-113.674;2023-05-23T12:56:27;60707.69;;;-145.13;100.00
64687;BME280;51113;53.646;-113.674;2023-05-23T12:58:55;60707.69;;;-145.13;100.00
64687;BME280;51113;53.646;-113.674;2023-05-23T13:01:24;60707.69;;;-145.13;100.00
64687;BME280;51113;53.646;-113.674;2023-05-23T13:03:52;60707.69;;;-145.13;100.00
64687;BME280;51113;53.646;-113.674;2023-05-23T13:06:21;60707.69;;;-145.13;100.00
64687;BME280;51113;53.646;-113.674;2023-05-23T13:08:50;60707.69;;;-145.13;100.00